Time;durP1;ratioP1;P1;durP2;ratioP2;P2;SDS_P1;SDS_P2;PMS_P1;PMS_P2;Temp;Humidity;BMP_temperature;BMP_pressure;BME280_temperature;BME280_humidity;BME280_pressure;Samples;Min_cycle;Max_cycle;Signal;HPM_P1;HPM_P2
2023/11/20 00:01:42;;;;;;;11.73;1.70;;;;;;;10.32;100.00;100606.75;5045428;28;20462;-76
2023/11/20 00:04:07;;;;;;;13.27;2.03;;;;;;;10.39;100.00;100603.50;5046035;28;20029;-77
2023/11/20 00:06:33;;;;;;;13.55;1.88;;;;;;;10.37;100.00;100608.84;5046433;28;20036;-77
2023/11/20 00:08:59;;;;;;;9.15;1.77;;;;;;;10.35;100.00;100599.63;5029699;28;20654;-76
2023/11/20 00:11:24;;;;;;;17.92;2.00;;;;;;;10.31;100.00;100599.13;5048149;28;20553;-76
2023/11/20 00:13:50;;;;;;;6.97;1.33;;;;;;;10.36;100.00;100596.88;5032004;28;20037;-76
2023/11/20 00:16:15;;;;;;;15.63;1.88;;;;;;;10.36;100.00;100602.06;5045516;28;20037;-75
2023/11/20 00:18:41;;;;;;;14.30;2.08;;;;;;;10.46;100.00;100601.91;5045809;28;20090;-77
2023/11/20 00:21:06;;;;;;;13.55;1.42;;;;;;;10.40;100.00;100607.72;5030951;28;20025;-76
2023/11/20 00:23:32;;;;;;;11.45;1.75;;;;;;;10.38;100.00;100607.88;5030739;28;20479;-76
2023/11/20 00:25:58;;;;;;;16.10;1.65;;;;;;;10.42;100.00;100598.81;5045603;28;20067;-76
2023/11/20 00:28:24;;;;;;;10.40;1.60;;;;;;;10.37;100.00;100602.84;5043060;28;20041;-77
2023/11/20 00:30:49;;;;;;;10.20;1.80;;;;;;;10.40;100.00;100611.13;5042604;28;20809;-77
2023/11/20 00:33:15;;;;;;;15.55;1.58;;;;;;;10.38;100.00;100614.81;5042391;28;20971;-76
2023/11/20 00:35:43;;;;;;;12.90;2.55;;;;;;;10.36;100.00;100617.59;5047511;28;20372;-77
2023/11/20 00:38:08;;;;;;;14.15;2.33;;;;;;;10.38;100.00;100613.06;5048763;28;20029;-77
2023/11/20 00:40:34;;;;;;;12.02;1.40;;;;;;;10.52;100.00;100616.81;5048612;28;20052;-75
2023/11/20 00:43:00;;;;;;;14.70;2.05;;;;;;;10.38;100.00;100609.66;5049893;28;20051;-77
2023/11/20 00:45:26;;;;;;;10.73;1.80;;;;;;;10.33;100.00;100608.34;5045706;28;20045;-75
2023/11/20 00:47:51;;;;;;;11.85;1.80;;;;;;;10.47;100.00;100616.47;5047200;28;20040;-77
2023/11/20 00:50:17;;;;;;;11.90;2.08;;;;;;;10.44;100.00;100617.59;5030338;28;20038;-76
2023/11/20 00:52:42;;;;;;;11.40;2.65;;;;;;;10.33;100.00;100618.72;5047875;28;20544;-76
2023/11/20 00:55:10;;;;;;;14.48;2.50;;;;;;;10.38;100.00;100615.66;5026105;28;20032;-77
2023/11/20 00:57:37;;;;;;;9.93;1.58;;;;;;;10.20;100.00;100620.91;5041162;28;20051;-76
2023/11/20 01:00:08;;;;;;;8.55;1.40;;;;;;;10.32;100.00;100611.09;5041128;28;20063;-77
2023/11/20 01:02:34;;;;;;;8.05;1.42;;;;;;;10.32;100.00;100617.09;5036139;28;20036;-76
2023/11/20 01:05:00;;;;;;;9.68;1.45;;;;;;;10.32;100.00;100619.69;5033081;28;20033;-76
2023/11/20 01:07:26;;;;;;;8.48;1.02;;;;;;;10.29;100.00;100625.16;5024613;28;20037;-76
2023/11/20 01:09:52;;;;;;;5.90;1.10;;;;;;;10.24;100.00;100621.41;5025043;28;21120;-76
2023/11/20 01:12:17;;;;;;;4.53;0.75;;;;;;;10.19;100.00;100627.09;5027537;28;20033;-77
2023/11/20 01:14:44;;;;;;;3.80;1.20;;;;;;;10.26;100.00;100619.47;5043845;28;20041;-77
2023/11/20 01:17:09;;;;;;;1.58;0.68;;;;;;;10.26;100.00;100627.25;5045335;28;20036;-75
2023/11/20 01:19:35;;;;;;;3.63;0.60;;;;;;;10.18;100.00;100632.41;5040296;28;20404;-77
2023/11/20 01:22:00;;;;;;;3.22;0.70;;;;;;;10.14;100.00;100632.72;5043330;28;20017;-77
2023/11/20 01:24:26;;;;;;;4.28;0.57;;;;;;;10.13;100.00;100632.88;5040801;28;20488;-76
2023/11/20 01:26:53;;;;;;;6.72;0.90;;;;;;;10.22;100.00;100631.13;5039181;28;20095;-76
2023/11/20 01:29:19;;;;;;;6.55;0.90;;;;;;;10.16;100.00;100618.81;5029543;28;20140;-76
2023/11/20 01:31:46;;;;;;;7.50;1.17;;;;;;;10.15;100.00;100633.53;5030001;28;20033;-76
2023/11/20 01:34:11;;;;;;;10.15;1.10;;;;;;;10.05;100.00;100625.88;5030717;28;20051;-76
2023/11/20 01:36:37;;;;;;;4.93;1.02;;;;;;;10.07;100.00;100623.16;5039474;28;20041;-76
2023/11/20 01:39:03;;;;;;;9.25;0.93;;;;;;;9.99;100.00;100626.53;5042001;28;20021;-77
2023/11/20 01:41:29;;;;;;;8.90;1.52;;;;;;;10.17;100.00;100629.03;5025466;28;20038;-76
2023/11/20 01:43:55;;;;;;;13.07;1.92;;;;;;;10.16;100.00;100629.97;5036457;28;20053;-76
2023/11/20 01:46:22;;;;;;;7.22;1.15;;;;;;;10.11;100.00;100624.44;5042236;28;20034;-76
2023/11/20 01:48:48;;;;;;;8.82;1.35;;;;;;;10.21;100.00;100625.16;5024235;28;20036;-76
2023/11/20 01:51:14;;;;;;;12.35;1.55;;;;;;;10.05;100.00;100620.69;5037714;28;20042;-76
2023/11/20 01:53:41;;;;;;;15.20;2.97;;;;;;;10.10;100.00;100620.25;5040367;28;20029;-76
2023/11/20 01:56:11;;;;;;;13.20;1.70;;;;;;;10.04;100.00;100626.88;5026353;28;20029;-77
2023/11/20 01:58:37;;;;;;;17.38;2.00;;;;;;;10.11;100.00;100616.69;5043707;28;20124;-77
2023/11/20 02:01:03;;;;;;;10.98;1.70;;;;;;;10.14;100.00;100619.75;5041636;28;20566;-76
2023/11/20 02:03:30;;;;;;;13.23;1.73;;;;;;;10.08;100.00;100620.41;5018675;28;20036;-75
2023/11/20 02:05:56;;;;;;;15.23;2.28;;;;;;;10.09;100.00;100618.63;5025782;28;22082;-76
2023/11/20 02:08:23;;;;;;;20.60;2.40;;;;;;;10.09;100.00;100626.38;5025307;28;20032;-76
2023/11/20 02:10:48;;;;;;;13.02;2.08;;;;;;;10.08;100.00;100617.81;5042349;28;20046;-77
2023/11/20 02:13:15;;;;;;;14.98;2.00;;;;;;;10.11;100.00;100620.09;5026931;28;20033;-76
2023/11/20 02:15:40;;;;;;;14.27;2.10;;;;;;;10.09;100.00;100626.38;5037361;28;20118;-77
2023/11/20 02:18:26;;;;;;;15.43;2.40;;;;;;;10.05;100.00;100618.13;5027297;28;20546;-77
2023/11/20 02:20:51;;;;;;;17.67;3.00;;;;;;;10.04;100.00;100628.63;5035216;28;20029;-77
2023/11/20 02:23:17;;;;;;;21.52;3.28;;;;;;;10.13;100.00;100622.50;5027015;28;20040;-76
2023/11/20 02:25:43;;;;;;;15.10;2.38;;;;;;;10.05;100.00;100625.88;5030128;28;20029;-75
2023/11/20 02:28:26;;;;;;;19.38;2.63;;;;;;;10.01;100.00;100613.41;5022303;28;20086;-75
2023/11/20 02:30:53;;;;;;;15.82;2.33;;;;;;;10.02;100.00;100608.09;5058457;28;20033;-76
2023/11/20 02:33:19;;;;;;;14.48;1.85;;;;;;;10.03;100.00;100616.66;5026191;28;20301;-76
2023/11/20 02:35:44;;;;;;;8.13;1.65;;;;;;;10.10;100.00;100608.09;5042065;28;20036;-77
2023/11/20 02:38:11;;;;;;;13.18;1.92;;;;;;;10.13;100.00;100620.75;5039117;28;20487;-77
2023/11/20 02:40:36;;;;;;;17.88;2.35;;;;;;;10.15;100.00;100612.78;5027249;28;20041;-76
2023/11/20 02:43:02;;;;;;;18.50;1.85;;;;;;;10.19;100.00;100614.13;5025186;28;20063;-76
2023/11/20 02:45:28;;;;;;;12.75;2.05;;;;;;;10.17;100.00;100610.06;5042351;28;20512;-76
2023/11/20 02:47:53;;;;;;;11.50;1.83;;;;;;;10.03;100.00;100608.88;5038571;28;20041;-77
2023/11/20 02:50:18;;;;;;;14.48;2.08;;;;;;;10.12;100.00;100613.94;5040732;28;20044;-77
2023/11/20 02:52:44;;;;;;;16.25;2.50;;;;;;;10.13;100.00;100618.16;5027903;28;20032;-78
2023/11/20 02:55:09;;;;;;;12.82;2.25;;;;;;;10.13;100.00;100615.56;5043360;28;20066;-76
2023/11/20 02:57:35;;;;;;;12.43;2.58;;;;;;;10.13;100.00;100612.97;5037687;28;20082;-77
2023/11/20 03:00:00;;;;;;;15.05;1.73;;;;;;;10.16;100.00;100605.84;5041358;28;20037;-76
2023/11/20 03:02:26;;;;;;;15.75;2.20;;;;;;;10.18;100.00;100612.50;5053246;28;20041;-76
2023/11/20 03:04:54;;;;;;;13.15;1.88;;;;;;;10.09;100.00;100610.84;5026566;28;20048;-75
2023/11/20 03:07:21;;;;;;;14.52;2.28;;;;;;;10.10;100.00;100602.91;5059883;28;20431;-76
2023/11/20 03:09:46;;;;;;;16.77;2.15;;;;;;;10.10;100.00;100609.88;5045158;28;20033;-75
2023/11/20 03:12:12;;;;;;;20.00;3.45;;;;;;;10.06;100.00;100606.00;5036153;28;20025;-77
2023/11/20 03:14:37;;;;;;;18.88;2.63;;;;;;;10.10;100.00;100609.88;5021597;28;20039;-77
2023/11/20 03:17:04;;;;;;;17.45;2.03;;;;;;;10.07;100.00;100605.00;5025896;28;20151;-76
2023/11/20 03:19:30;;;;;;;17.98;2.10;;;;;;;9.99;100.00;100599.81;5042373;28;20033;-77
2023/11/20 03:21:56;;;;;;;16.42;2.72;;;;;;;10.03;100.00;100596.75;5040021;28;20028;-76
2023/11/20 03:24:21;;;;;;;20.08;2.28;;;;;;;10.01;100.00;100597.88;5040215;28;20480;-77
2023/11/20 03:26:47;;;;;;;13.15;2.40;;;;;;;10.04;100.00;100595.78;5027519;28;20036;-75
2023/11/20 03:29:12;;;;;;;11.55;1.65;;;;;;;10.12;100.00;100613.94;5043326;28;20053;-77
2023/11/20 03:31:38;;;;;;;18.25;1.98;;;;;;;10.02;100.00;100605.50;5042961;28;20608;-77
2023/11/20 03:34:05;;;;;;;16.75;1.60;;;;;;;9.97;100.00;100604.34;5041918;28;20075;-76
2023/11/20 03:36:34;;;;;;;17.40;1.45;;;;;;;9.99;100.00;100602.41;5042288;28;20044;-75
2023/11/20 03:39:00;;;;;;;17.63;2.25;;;;;;;9.97;100.00;100606.94;5027929;28;20411;-77
2023/11/20 03:41:26;;;;;;;10.32;1.45;;;;;;;10.09;100.00;100603.06;5029083;28;20496;-76
2023/11/20 03:43:52;;;;;;;18.17;1.60;;;;;;;9.97;100.00;100602.56;5027612;28;20459;-77
2023/11/20 03:46:17;;;;;;;12.95;2.42;;;;;;;9.96;100.00;100602.69;5038227;28;20163;-76
2023/11/20 03:48:43;;;;;;;6.68;1.40;;;;;;;10.04;100.00;100607.91;5040855;28;20036;-76
2023/11/20 03:51:08;;;;;;;13.93;1.40;;;;;;;9.96;100.00;100602.69;5039328;28;20673;-76
2023/11/20 03:53:34;;;;;;;12.98;2.38;;;;;;;10.00;100.00;100602.25;5027466;28;20033;-77
2023/11/20 03:55:59;;;;;;;34.05;11.07;;;;;;;9.84;100.00;100602.97;5043546;28;20045;-77
2023/11/20 03:58:26;;;;;;;16.88;5.63;;;;;;;9.80;100.00;100614.63;5043860;28;20021;-77
2023/11/20 04:00:51;;;;;;;20.85;5.40;;;;;;;9.85;100.00;100611.56;5041961;28;20450;-76
2023/11/20 04:03:17;;;;;;;11.63;2.17;;;;;;;9.86;100.00;100624.34;5038074;28;20087;-78
2023/11/20 04:05:42;;;;;;;12.98;3.53;;;;;;;9.78;100.00;100620.94;5035545;28;20041;-77
2023/11/20 04:08:08;;;;;;;11.35;2.40;;;;;;;9.87;100.00;100618.22;5041358;28;20106;-76
2023/11/20 04:10:33;;;;;;;13.98;4.43;;;;;;;9.81;100.00;100618.03;5043795;28;20037;-77
2023/11/20 04:12:59;;;;;;;9.30;3.25;;;;;;;9.87;100.00;100630.34;5040303;28;20021;-76
2023/11/20 04:15:25;;;;;;;11.32;5.05;;;;;;;9.89;100.00;100631.81;5035412;28;20040;-77
2023/11/20 04:17:50;;;;;;;11.23;1.88;;;;;;;9.86;100.00;100626.94;5041506;28;20029;-77
2023/11/20 04:20:18;;;;;;;10.55;1.95;;;;;;;9.94;100.00;100620.97;5041778;28;20031;-76
2023/11/20 04:22:44;;;;;;;9.75;1.83;;;;;;;9.75;100.00;100628.03;5041028;28;20099;-76
2023/11/20 04:25:10;;;;;;;7.50;1.75;;;;;;;9.71;100.00;100620.72;5042074;28;20041;-77
2023/11/20 04:27:36;;;;;;;9.93;2.67;;;;;;;9.67;100.00;100628.00;5062773;28;20048;-76
2023/11/20 04:30:02;;;;;;;9.25;1.70;;;;;;;9.73;100.00;100617.00;5044749;28;20033;-76
2023/11/20 04:32:27;;;;;;;5.38;1.52;;;;;;;9.76;100.00;100623.69;5048834;28;20483;-76
2023/11/20 04:34:52;;;;;;;8.57;1.40;;;;;;;9.76;100.00;100628.84;5043993;28;20399;-76
2023/11/20 04:37:18;;;;;;;9.85;1.60;;;;;;;9.80;100.00;100621.59;5043640;28;20037;-77
2023/11/20 04:39:44;;;;;;;7.32;1.30;;;;;;;9.68;100.00;100619.28;5046516;28;20040;-77
2023/11/20 04:42:10;;;;;;;11.30;1.77;;;;;;;9.76;100.00;100621.09;5045972;28;20554;-78
2023/11/20 04:44:35;;;;;;;6.13;1.67;;;;;;;9.71;100.00;100621.53;5030729;28;20045;-76
2023/11/20 04:47:01;;;;;;;5.80;0.93;;;;;;;9.77;100.00;100627.88;5033492;28;20489;-74
2023/11/20 04:49:26;;;;;;;10.68;1.10;;;;;;;9.85;100.00;100620.16;5044831;28;20043;-78
2023/11/20 04:51:54;;;;;;;6.95;1.48;;;;;;;9.76;100.00;100610.72;5032020;28;20044;-78
2023/11/20 04:54:20;;;;;;;8.48;1.50;;;;;;;9.78;100.00;100608.00;5044457;28;20467;-76
2023/11/20 04:56:45;;;;;;;9.30;1.98;;;;;;;9.88;100.00;100606.88;5031763;28;20083;-77
2023/11/20 04:59:11;;;;;;;9.70;1.83;;;;;;;9.84;100.00;100605.56;5044821;28;20052;-76
2023/11/20 05:01:37;;;;;;;11.07;2.00;;;;;;;9.78;100.00;100605.41;5045013;28;20140;-78
2023/11/20 05:04:03;;;;;;;7.20;1.58;;;;;;;9.76;100.00;100605.56;5036351;28;20549;-75
2023/11/20 05:06:30;;;;;;;13.85;2.03;;;;;;;9.72;100.00;100602.47;5043449;28;20037;-77
2023/11/20 05:08:56;;;;;;;11.05;1.98;;;;;;;9.73;100.00;100605.84;5039730;28;20057;-77
2023/11/20 05:11:22;;;;;;;10.38;1.60;;;;;;;9.80;100.00;100604.28;5054444;28;20391;-77
2023/11/20 05:13:48;;;;;;;12.18;2.30;;;;;;;9.80;100.00;100606.06;5038262;28;20022;-77
2023/11/20 05:16:14;;;;;;;13.52;2.85;;;;;;;9.74;100.00;100613.47;5032395;28;20444;-76
2023/11/20 05:18:39;;;;;;;15.80;2.80;;;;;;;9.73;100.00;100609.25;5031477;28;20502;-76
2023/11/20 05:21:05;;;;;;;10.63;2.17;;;;;;;9.72;100.00;100610.22;5041337;28;20041;-76
2023/11/20 05:23:31;;;;;;;9.10;1.63;;;;;;;9.71;100.00;100608.59;5035428;28;20112;-77
2023/11/20 05:25:56;;;;;;;23.33;2.42;;;;;;;9.74;100.00;100607.50;5043658;28;20040;-80
2023/11/20 05:28:22;;;;;;;21.23;2.50;;;;;;;9.77;100.00;100616.72;5029587;28;20036;-75
2023/11/20 05:30:48;;;;;;;12.32;2.15;;;;;;;9.69;100.00;100612.31;5028452;28;20033;-76
2023/11/20 05:33:13;;;;;;;12.27;2.28;;;;;;;9.72;100.00;100604.25;5043771;28;20040;-76
2023/11/20 05:35:39;;;;;;;18.75;2.35;;;;;;;9.83;100.00;100616.09;5036820;28;20056;-76
2023/11/20 05:38:05;;;;;;;16.75;2.90;;;;;;;9.78;100.00;100613.97;5040681;28;20040;-77
2023/11/20 05:40:31;;;;;;;18.10;2.35;;;;;;;9.76;100.00;100618.50;5042997;28;20110;-75
2023/11/20 05:42:57;;;;;;;15.63;2.33;;;;;;;9.77;100.00;100622.69;5031840;28;20111;-76
2023/11/20 05:45:22;;;;;;;22.25;2.42;;;;;;;9.80;100.00;100619.00;5040274;28;20048;-77
2023/11/20 05:47:48;;;;;;;12.30;1.88;;;;;;;9.72;100.00;100622.38;5043366;28;20031;-77
2023/11/20 05:50:13;;;;;;;20.92;2.35;;;;;;;9.79;100.00;100614.78;5037809;28;20495;-77
2023/11/20 05:52:39;;;;;;;12.30;2.40;;;;;;;9.69;100.00;100618.28;5043727;28;20517;-75
2023/11/20 05:55:05;;;;;;;17.80;2.25;;;;;;;9.79;100.00;100623.34;5044008;28;20039;-77
2023/11/20 05:57:30;;;;;;;10.05;1.88;;;;;;;9.77;100.00;100617.50;5041038;28;20403;-77
2023/11/20 05:59:56;;;;;;;16.55;2.25;;;;;;;9.71;100.00;100616.34;5022064;28;20033;-77
2023/11/20 06:02:21;;;;;;;16.02;3.10;;;;;;;9.66;100.00;100621.22;5059636;28;20025;-77
2023/11/20 06:04:46;;;;;;;21.15;2.10;;;;;;;9.70;100.00;100622.53;5027889;28;20699;-77
2023/11/20 06:07:14;;;;;;;12.63;1.95;;;;;;;9.71;100.00;100624.13;5044073;28;20181;-77
2023/11/20 06:09:40;;;;;;;21.00;2.45;;;;;;;9.79;100.00;100630.31;5042058;28;20086;-77
2023/11/20 06:12:07;;;;;;;21.90;6.32;;;;;;;9.69;100.00;100633.81;5034472;28;20081;-77
2023/11/20 06:14:32;;;;;;;18.10;2.50;;;;;;;9.75;100.00;100635.78;5026837;28;20095;-77
2023/11/20 06:16:58;;;;;;;23.98;6.47;;;;;;;9.76;100.00;100636.63;5040485;28;20549;-77
2023/11/20 06:19:27;;;;;;;15.80;3.53;;;;;;;9.80;100.00;100643.13;5026803;28;20391;-77
2023/11/20 06:21:53;;;;;;;20.33;2.88;;;;;;;9.67;100.00;100647.91;5040793;28;20029;-77
2023/11/20 06:24:20;;;;;;;20.50;3.13;;;;;;;9.75;100.00;100645.34;5026376;28;20047;-77
2023/11/20 06:26:45;;;;;;;18.02;4.00;;;;;;;9.77;100.00;100643.41;5039670;28;20120;-77
2023/11/20 06:29:11;;;;;;;20.35;5.30;;;;;;;9.71;100.00;100665.56;5021060;28;20036;-77
2023/11/20 06:31:37;;;;;;;21.08;5.60;;;;;;;9.70;100.00;100642.41;5025103;28;20403;-78
2023/11/20 06:34:03;;;;;;;22.80;5.53;;;;;;;9.71;100.00;100644.03;5031302;28;20033;-77
2023/11/20 06:36:29;;;;;;;23.02;6.57;;;;;;;9.72;100.00;100656.84;5041121;28;20036;-76
2023/11/20 06:38:54;;;;;;;23.20;5.55;;;;;;;9.73;100.00;100652.47;5029612;28;20040;-78
2023/11/20 06:41:21;;;;;;;27.08;4.63;;;;;;;9.60;100.00;100652.06;5039234;28;20036;-77
2023/11/20 06:43:47;;;;;;;43.70;15.05;;;;;;;9.68;100.00;100639.16;5037005;28;20029;-78
2023/11/20 06:46:23;;;;;;;50.28;14.00;;;;;;;9.62;100.00;100663.88;5044636;28;20041;-76
2023/11/20 06:48:48;;;;;;;90.20;30.42;;;;;;;9.69;100.00;100666.69;5044576;28;20047;-78
2023/11/20 06:51:15;;;;;;;43.83;13.43;;;;;;;9.58;100.00;100664.34;5041715;28;20037;-78
2023/11/20 06:53:41;;;;;;;133.57;45.55;;;;;;;9.54;100.00;100666.44;5041586;28;20507;-77
2023/11/20 06:56:15;;;;;;;134.02;48.50;;;;;;;9.49;100.00;100656.53;5039285;28;20061;-77
2023/11/20 06:58:41;;;;;;;51.95;15.50;;;;;;;9.59;100.00;100660.78;5060388;28;20115;-77
2023/11/20 07:01:07;;;;;;;21.67;5.32;;;;;;;9.59;100.00;100671.97;5024069;28;20037;-77
2023/11/20 07:03:33;;;;;;;21.33;3.30;;;;;;;9.60;100.00;100665.81;5040917;28;20538;-77
2023/11/20 07:05:58;;;;;;;23.35;6.82;;;;;;;9.48;100.00;100679.97;5042632;28;20041;-78
2023/11/20 07:08:25;;;;;;;22.98;4.05;;;;;;;9.48;100.00;100678.19;5042847;28;20277;-77
2023/11/20 07:10:51;;;;;;;21.25;3.25;;;;;;;9.60;100.00;100685.72;5028837;28;20037;-76
2023/11/20 07:13:16;;;;;;;22.90;3.88;;;;;;;9.57;100.00;100692.03;5043298;28;20032;-75
2023/11/20 07:15:42;;;;;;;23.98;2.78;;;;;;;9.59;100.00;100697.84;5029031;28;20040;-77
2023/11/20 07:18:10;;;;;;;18.15;6.00;;;;;;;9.65;100.00;100699.03;5043596;28;20387;-76
2023/11/20 07:20:36;;;;;;;22.85;3.70;;;;;;;9.67;100.00;100686.75;5028091;28;20073;-76
2023/11/20 07:23:04;;;;;;;22.42;4.28;;;;;;;9.69;100.00;100695.16;5043281;28;20029;-76
2023/11/20 07:25:35;;;;;;;28.58;8.60;;;;;;;9.54;100.00;100692.31;5041158;28;20529;-76
2023/11/20 07:28:01;;;;;;;23.02;4.70;;;;;;;9.58;100.00;100692.81;5037852;28;20040;-78
2023/11/20 07:30:28;;;;;;;19.63;3.40;;;;;;;9.63;100.00;100709.53;5026667;28;20127;-77
2023/11/20 07:32:55;;;;;;;15.88;3.25;;;;;;;9.66;100.00;100705.81;5029972;28;20483;-77
2023/11/20 07:35:20;;;;;;;16.20;3.17;;;;;;;9.58;100.00;100710.94;5026342;28;20474;-77
2023/11/20 07:37:46;;;;;;;27.85;3.90;;;;;;;9.61;100.00;100708.06;5043871;28;20039;-76
2023/11/20 07:40:12;;;;;;;22.80;2.60;;;;;;;9.58;100.00;100692.81;5041283;28;20045;-77
2023/11/20 07:42:38;;;;;;;19.23;3.65;;;;;;;9.65;100.00;100696.44;5044688;28;20331;-78
2023/11/20 07:45:04;;;;;;;15.18;2.47;;;;;;;9.63;100.00;100701.75;5053322;28;20045;-78
2023/11/20 07:47:29;;;;;;;17.88;2.83;;;;;;;9.63;100.00;100706.94;5040510;28;20045;-77
2023/11/20 07:49:55;;;;;;;31.60;5.75;;;;;;;9.62;100.00;100702.72;5026320;28;20033;-78
2023/11/20 07:52:21;;;;;;;19.30;2.92;;;;;;;9.55;100.00;100710.28;5044654;28;20487;-76
2023/11/20 07:54:47;;;;;;;21.80;2.75;;;;;;;9.60;100.00;100719.38;5032208;28;20086;-77
2023/11/20 07:57:15;;;;;;;17.08;2.58;;;;;;;9.64;100.00;100721.50;5030843;28;20432;-76
2023/11/20 07:59:41;;;;;;;23.27;4.57;;;;;;;9.64;100.00;100720.69;5024638;28;20050;-76
2023/11/20 08:02:07;;;;;;;16.10;2.65;;;;;;;9.69;100.00;100713.28;5049410;28;20505;-77
2023/11/20 08:04:33;;;;;;;23.45;3.17;;;;;;;9.70;100.00;100714.91;5046000;28;20052;-77
2023/11/20 08:06:58;;;;;;;21.88;2.63;;;;;;;9.67;100.00;100720.41;5043425;28;20407;-77
2023/11/20 08:09:24;;;;;;;16.23;3.55;;;;;;;9.65;100.00;100723.13;5051584;28;20029;-78
2023/11/20 08:11:50;;;;;;;11.88;2.00;;;;;;;9.84;100.00;100716.94;5031668;28;20033;-77
2023/11/20 08:14:15;;;;;;;16.27;2.15;;;;;;;9.78;100.00;100725.31;5030764;28;20511;-76
2023/11/20 08:16:41;;;;;;;21.20;2.83;;;;;;;9.79;100.00;100724.34;5045352;28;20041;-77
2023/11/20 08:19:07;;;;;;;18.75;2.40;;;;;;;9.73;100.00;100719.78;5046397;28;20031;-76
2023/11/20 08:21:32;;;;;;;25.60;2.42;;;;;;;9.75;100.00;100713.47;5047587;28;20037;-78
2023/11/20 08:23:58;;;;;;;18.38;2.90;;;;;;;9.86;100.00;100709.03;5032114;28;20475;-77
2023/11/20 08:26:23;;;;;;;18.25;2.10;;;;;;;9.95;100.00;100715.88;5043372;28;20037;-77
2023/11/20 08:28:50;;;;;;;21.65;3.25;;;;;;;10.08;100.00;100723.22;5035247;28;20344;-77
2023/11/20 08:31:16;;;;;;;24.05;2.70;;;;;;;10.04;100.00;100714.13;5031263;28;20102;-76
2023/11/20 08:33:41;;;;;;;19.45;2.88;;;;;;;10.04;100.00;100722.72;5049156;28;20032;-76
2023/11/20 08:36:08;;;;;;;14.80;1.90;;;;;;;10.04;100.00;100712.34;5046461;28;20033;-78
2023/11/20 08:38:34;;;;;;;20.23;2.50;;;;;;;10.06;100.00;100707.03;5044427;28;20033;-76
2023/11/20 08:41:00;;;;;;;25.15;3.03;;;;;;;10.02;100.00;100708.28;5042818;28;20037;-76
2023/11/20 08:43:27;;;;;;;20.02;2.22;;;;;;;10.08;100.00;100700.72;5044593;28;20067;-77
2023/11/20 08:45:53;;;;;;;19.55;2.33;;;;;;;10.15;100.00;100711.25;5044268;28;20080;-77
2023/11/20 08:48:19;;;;;;;22.00;3.08;;;;;;;10.15;100.00;100706.06;5043749;28;20104;-76
2023/11/20 08:50:44;;;;;;;29.27;3.42;;;;;;;10.17;100.00;100703.34;5042766;28;20037;-77
2023/11/20 08:53:10;;;;;;;18.17;2.85;;;;;;;10.17;100.00;100696.41;5040500;28;20524;-77
2023/11/20 08:55:35;;;;;;;12.75;2.25;;;;;;;10.26;100.00;100700.63;5031076;28;20041;-77
2023/11/20 08:58:04;;;;;;;16.48;2.33;;;;;;;10.26;100.00;100690.25;5046819;28;20028;-76
2023/11/20 09:00:30;;;;;;;19.42;2.47;;;;;;;10.22;100.00;100696.72;5028229;28;20029;-75
2023/11/20 09:02:55;;;;;;;20.70;2.42;;;;;;;10.13;100.00;100702.81;5029636;28;20461;-77
2023/11/20 09:05:21;;;;;;;20.35;2.15;;;;;;;10.00;100.00;100692.91;5044047;28;20037;-77
2023/11/20 09:07:46;;;;;;;17.65;2.83;;;;;;;10.23;100.00;100694.97;5043961;28;20110;-76
2023/11/20 09:10:12;;;;;;;19.50;2.25;;;;;;;10.17;100.00;100696.41;5044251;28;20555;-77
2023/11/20 09:12:39;;;;;;;17.33;3.13;;;;;;;10.20;100.00;100693.47;5041457;28;20064;-78
2023/11/20 09:15:06;;;;;;;18.90;3.38;;;;;;;10.12;100.00;100696.03;5032735;28;20029;-81
2023/11/20 09:17:31;;;;;;;17.33;2.25;;;;;;;9.99;100.00;100686.09;5044997;28;20056;-78
2023/11/20 09:19:58;;;;;;;17.95;2.58;;;;;;;10.02;100.00;100692.75;5024518;28;20515;-77
2023/11/20 09:22:25;;;;;;;11.63;3.35;;;;;;;10.07;100.00;100695.69;5043950;28;20044;-77
2023/11/20 09:24:51;;;;;;;16.98;2.40;;;;;;;10.06;100.00;100701.84;5043279;28;20120;-77
2023/11/20 09:27:18;;;;;;;17.40;2.17;;;;;;;10.02;100.00;100697.91;5042048;28;20037;-77
2023/11/20 09:29:45;;;;;;;22.10;3.67;;;;;;;10.02;100.00;100697.91;5044286;28;20044;-78
2023/11/20 09:32:10;;;;;;;23.48;3.67;;;;;;;10.07;100.00;100695.69;5041569;28;20457;-78
2023/11/20 09:34:37;;;;;;;15.50;2.28;;;;;;;10.09;100.00;100693.75;5022003;28;20041;-77
2023/11/20 09:37:03;;;;;;;16.13;2.28;;;;;;;10.24;100.00;100692.19;5043327;28;20116;-77
2023/11/20 09:39:29;;;;;;;18.50;2.70;;;;;;;10.44;100.00;100694.56;5044150;28;20123;-77
2023/11/20 09:41:55;;;;;;;8.77;2.05;;;;;;;10.46;100.00;100690.03;5044330;28;20163;-76
2023/11/20 09:44:26;;;;;;;13.32;2.13;;;;;;;10.42;100.00;100701.69;5045569;28;20068;-79
2023/11/20 09:46:52;;;;;;;19.95;2.00;;;;;;;10.46;100.00;100690.03;5046536;28;20047;-77
2023/11/20 09:49:28;;;;;;;15.98;2.20;;;;;;;10.44;100.00;100697.97;5041916;28;20124;-77
2023/11/20 09:51:56;;;;;;;12.35;2.50;;;;;;;10.39;100.00;100694.22;5042066;28;20044;-76
2023/11/20 09:54:24;;;;;;;14.73;2.03;;;;;;;10.42;100.00;100694.72;5046933;28;20111;-75
2023/11/20 09:56:51;;;;;;;14.95;1.80;;;;;;;10.38;100.00;100692.59;5024553;28;20108;-78
2023/11/20 09:59:16;;;;;;;15.00;2.58;;;;;;;10.36;100.00;100691.94;5029947;28;20024;-78
2023/11/20 10:01:44;;;;;;;10.20;1.45;;;;;;;10.40;100.00;100688.88;5035622;28;20030;-78
2023/11/20 10:04:16;;;;;;;12.88;2.13;;;;;;;10.35;100.00;100693.72;5061222;28;20059;-77
2023/11/20 10:06:44;;;;;;;7.55;1.92;;;;;;;10.44;100.00;100687.59;5044304;28;20033;-77
2023/11/20 10:09:12;;;;;;;11.15;1.85;;;;;;;10.44;100.00;100679.03;5043461;28;20040;-78
2023/11/20 10:11:40;;;;;;;11.05;1.75;;;;;;;10.44;100.00;100686.78;5025509;28;20036;-77
2023/11/20 10:14:06;;;;;;;12.35;1.92;;;;;;;10.53;100.00;100683.25;5036930;28;21784;-78
2023/11/20 10:16:35;;;;;;;10.23;1.60;;;;;;;10.56;100.00;100680.34;5040575;28;20089;-77
2023/11/20 10:19:01;;;;;;;14.68;1.98;;;;;;;10.68;100.00;100681.66;5030748;28;20061;-77
2023/11/20 10:21:29;;;;;;;9.10;1.45;;;;;;;10.70;100.00;100671.94;5041765;28;20059;-77
2023/11/20 10:23:55;;;;;;;20.17;2.10;;;;;;;10.60;100.00;100662.69;5040965;28;20029;-77
2023/11/20 10:26:24;;;;;;;14.70;2.05;;;;;;;10.59;100.00;100658.47;5045423;28;20124;-78
2023/11/20 10:28:50;;;;;;;14.45;1.70;;;;;;;10.54;100.00;100665.91;5041676;28;20038;-77
2023/11/20 10:31:16;;;;;;;11.25;1.95;;;;;;;10.54;100.00;100660.72;5027237;28;20086;-76
2023/11/20 10:33:43;;;;;;;10.00;1.38;;;;;;;10.54;100.00;100658.13;5044032;28;20029;-77
2023/11/20 10:36:15;;;;;;;15.98;2.67;;;;;;;10.69;100.00;100662.53;5029131;28;20035;-77
2023/11/20 10:38:44;;;;;;;9.85;1.40;;;;;;;10.71;100.00;100662.38;5046987;28;20111;-78
2023/11/20 10:41:11;;;;;;;30.48;10.23;;;;;;;10.63;100.00;100652.81;5045940;28;20028;-77
2023/11/20 10:43:38;;;;;;;9.55;2.03;;;;;;;10.60;100.00;100653.09;5025119;28;20115;-77
2023/11/20 10:46:05;;;;;;;8.95;1.95;;;;;;;10.58;100.00;100649.06;5043583;28;20468;-77
2023/11/20 10:48:36;;;;;;;5.20;1.17;;;;;;;10.57;100.00;100644.84;5029742;28;20445;-77
2023/11/20 10:51:07;;;;;;;9.77;1.70;;;;;;;10.62;100.00;100638.19;5061609;28;20488;-77
2023/11/20 10:53:42;;;;;;;6.20;1.20;;;;;;;10.64;100.00;100640.63;5029427;28;20036;-77
2023/11/20 10:56:10;;;;;;;8.27;1.63;;;;;;;10.66;100.00;100638.69;5039958;28;20033;-75
2023/11/20 10:58:38;;;;;;;8.80;1.33;;;;;;;10.66;100.00;100631.75;5039339;28;20380;-75
2023/11/20 11:01:05;;;;;;;8.90;1.50;;;;;;;10.70;100.00;100627.84;5024896;28;20056;-76
2023/11/20 11:03:32;;;;;;;7.95;1.08;;;;;;;10.72;100.00;100614.72;5042181;28;20029;-77
2023/11/20 11:06:03;;;;;;;14.65;1.60;;;;;;;10.67;100.00;100614.41;5042856;28;20082;-76
2023/11/20 11:08:31;;;;;;;9.80;1.25;;;;;;;10.75;100.00;100621.38;5037480;28;20068;-77
2023/11/20 11:10:57;;;;;;;4.07;1.15;;;;;;;10.77;100.00;100622.81;5041298;28;20708;-76